sensor_id;sensor_type;location;lat;lon;timestamp;P1;durP1;ratioP1;P2;durP2;ratioP2
71187;SDS011;58893;53.130;8.158;2022-09-14T00:01:37;3.77;;;1.73;;
71187;SDS011;58893;53.130;8.158;2022-09-14T00:04:09;3.03;;;2.00;;
71187;SDS011;58893;53.130;8.158;2022-09-14T00:06:38;2.63;;;2.10;;
71187;SDS011;58893;53.130;8.158;2022-09-14T00:09:04;4.40;;;1.90;;
71187;SDS011;58893;53.130;8.158;2022-09-14T00:11:35;8.23;;;2.30;;
71187;SDS011;58893;53.130;8.158;2022-09-14T00:14:02;6.27;;;2.50;;
71187;SDS011;58893;53.130;8.158;2022-09-14T00:16:30;2.60;;;2.10;;
71187;SDS011;58893;53.130;8.158;2022-09-14T00:19:00;3.80;;;1.97;;
71187;SDS011;58893;53.130;8.158;2022-09-14T00:21:29;7.53;;;2.20;;
71187;SDS011;58893;53.130;8.158;2022-09-14T00:23:56;8.07;;;1.70;;
71187;SDS011;58893;53.130;8.158;2022-09-14T00:26:22;9.40;;;2.67;;
71187;SDS011;58893;53.130;8.158;2022-09-14T00:28:50;3.70;;;2.00;;
71187;SDS011;58893;53.130;8.158;2022-09-14T00:31:21;4.43;;;2.00;;
71187;SDS011;58893;53.130;8.158;2022-09-14T00:33:48;6.00;;;1.87;;
71187;SDS011;58893;53.130;8.158;2022-09-14T00:36:18;5.17;;;1.87;;
71187;SDS011;58893;53.130;8.158;2022-09-14T00:38:46;10.77;;;2.73;;
71187;SDS011;58893;53.130;8.158;2022-09-14T00:41:13;5.37;;;2.37;;
71187;SDS011;58893;53.130;8.158;2022-09-14T00:44:02;7.23;;;2.50;;
71187;SDS011;58893;53.130;8.158;2022-09-14T00:46:29;9.70;;;2.43;;
71187;SDS011;58893;53.130;8.158;2022-09-14T00:48:58;3.03;;;1.77;;
71187;SDS011;58893;53.130;8.158;2022-09-14T00:51:26;5.93;;;2.40;;
71187;SDS011;58893;53.130;8.158;2022-09-14T00:53:53;3.50;;;2.30;;
71187;SDS011;58893;53.130;8.158;2022-09-14T00:56:19;3.67;;;1.70;;
71187;SDS011;58893;53.130;8.158;2022-09-14T00:58:46;10.20;;;2.30;;
71187;SDS011;58893;53.130;8.158;2022-09-14T01:01:15;6.53;;;2.57;;
71187;SDS011;58893;53.130;8.158;2022-09-14T01:03:40;5.33;;;2.10;;
71187;SDS011;58893;53.130;8.158;2022-09-14T01:11:37;5.80;;;2.40;;
71187;SDS011;58893;53.130;8.158;2022-09-14T01:28:21;6.70;;;2.40;;
71187;SDS011;58893;53.130;8.158;2022-09-14T01:30:51;7.13;;;2.37;;
71187;SDS011;58893;53.130;8.158;2022-09-14T01:33:20;4.93;;;2.23;;
71187;SDS011;58893;53.130;8.158;2022-09-14T01:35:54;5.43;;;2.50;;
71187;SDS011;58893;53.130;8.158;2022-09-14T01:38:25;2.87;;;1.90;;
71187;SDS011;58893;53.130;8.158;2022-09-14T01:40:56;12.37;;;2.50;;
71187;SDS011;58893;53.130;8.158;2022-09-14T01:46:00;4.57;;;2.00;;
71187;SDS011;58893;53.130;8.158;2022-09-14T01:48:33;5.57;;;2.03;;
71187;SDS011;58893;53.130;8.158;2022-09-14T01:51:04;3.87;;;2.20;;
71187;SDS011;58893;53.130;8.158;2022-09-14T01:53:44;4.77;;;2.57;;
71187;SDS011;58893;53.130;8.158;2022-09-14T01:56:17;8.20;;;2.60;;
71187;SDS011;58893;53.130;8.158;2022-09-14T01:59:04;8.80;;;2.67;;
71187;SDS011;58893;53.130;8.158;2022-09-14T02:01:35;12.53;;;2.30;;
71187;SDS011;58893;53.130;8.158;2022-09-14T02:04:06;14.50;;;2.20;;
71187;SDS011;58893;53.130;8.158;2022-09-14T02:06:47;4.90;;;2.57;;
71187;SDS011;58893;53.130;8.158;2022-09-14T02:09:15;9.80;;;2.07;;
71187;SDS011;58893;53.130;8.158;2022-09-14T02:11:43;2.50;;;1.90;;
71187;SDS011;58893;53.130;8.158;2022-09-14T02:14:10;6.40;;;2.53;;
71187;SDS011;58893;53.130;8.158;2022-09-14T02:16:36;6.10;;;2.47;;
71187;SDS011;58893;53.130;8.158;2022-09-14T02:19:02;6.03;;;2.27;;
71187;SDS011;58893;53.130;8.158;2022-09-14T02:21:30;6.50;;;2.70;;
71187;SDS011;58893;53.130;8.158;2022-09-14T02:23:59;7.50;;;2.63;;
71187;SDS011;58893;53.130;8.158;2022-09-14T02:26:26;3.63;;;2.40;;
71187;SDS011;58893;53.130;8.158;2022-09-14T02:28:53;4.10;;;2.43;;
71187;SDS011;58893;53.130;8.158;2022-09-14T02:36:48;6.20;;;2.77;;
71187;SDS011;58893;53.130;8.158;2022-09-14T02:39:34;7.30;;;2.63;;
71187;SDS011;58893;53.130;8.158;2022-09-14T02:55:47;2.97;;;2.67;;
71187;SDS011;58893;53.130;8.158;2022-09-14T02:58:16;9.50;;;3.27;;
71187;SDS011;58893;53.130;8.158;2022-09-14T03:00:46;10.00;;;2.70;;
71187;SDS011;58893;53.130;8.158;2022-09-14T03:03:13;6.50;;;3.00;;
71187;SDS011;58893;53.130;8.158;2022-09-14T03:05:41;7.53;;;3.47;;
71187;SDS011;58893;53.130;8.158;2022-09-14T03:08:07;7.40;;;3.43;;
71187;SDS011;58893;53.130;8.158;2022-09-14T03:10:34;7.80;;;2.70;;
71187;SDS011;58893;53.130;8.158;2022-09-14T03:13:00;8.70;;;3.13;;
71187;SDS011;58893;53.130;8.158;2022-09-14T03:15:26;5.83;;;3.13;;
71187;SDS011;58893;53.130;8.158;2022-09-14T03:17:52;3.90;;;2.73;;
71187;SDS011;58893;53.130;8.158;2022-09-14T03:20:20;3.67;;;2.60;;
71187;SDS011;58893;53.130;8.158;2022-09-14T03:22:51;4.23;;;2.20;;
71187;SDS011;58893;53.130;8.158;2022-09-14T03:25:17;9.37;;;2.90;;
71187;SDS011;58893;53.130;8.158;2022-09-14T03:27:47;4.23;;;2.90;;
71187;SDS011;58893;53.130;8.158;2022-09-14T03:30:17;6.23;;;2.77;;
71187;SDS011;58893;53.130;8.158;2022-09-14T03:32:44;10.53;;;3.63;;
71187;SDS011;58893;53.130;8.158;2022-09-14T03:35:10;5.10;;;3.00;;
71187;SDS011;58893;53.130;8.158;2022-09-14T03:37:37;9.47;;;2.57;;
71187;SDS011;58893;53.130;8.158;2022-09-14T03:40:04;4.10;;;3.13;;
71187;SDS011;58893;53.130;8.158;2022-09-14T03:42:30;6.00;;;2.90;;
71187;SDS011;58893;53.130;8.158;2022-09-14T03:44:56;5.90;;;2.93;;
71187;SDS011;58893;53.130;8.158;2022-09-14T03:47:22;5.90;;;3.53;;
71187;SDS011;58893;53.130;8.158;2022-09-14T03:49:47;9.93;;;3.10;;
71187;SDS011;58893;53.130;8.158;2022-09-14T03:52:13;3.97;;;2.93;;
71187;SDS011;58893;53.130;8.158;2022-09-14T03:54:39;7.40;;;3.23;;
71187;SDS011;58893;53.130;8.158;2022-09-14T03:57:05;5.30;;;2.50;;
71187;SDS011;58893;53.130;8.158;2022-09-14T03:59:31;8.13;;;3.43;;
71187;SDS011;58893;53.130;8.158;2022-09-14T04:01:57;9.53;;;3.27;;
71187;SDS011;58893;53.130;8.158;2022-09-14T04:04:24;9.00;;;3.03;;
71187;SDS011;58893;53.130;8.158;2022-09-14T04:06:50;5.53;;;2.57;;
71187;SDS011;58893;53.130;8.158;2022-09-14T04:09:15;3.57;;;3.00;;
71187;SDS011;58893;53.130;8.158;2022-09-14T04:11:42;11.20;;;3.10;;
71187;SDS011;58893;53.130;8.158;2022-09-14T04:14:08;11.60;;;2.93;;
71187;SDS011;58893;53.130;8.158;2022-09-14T04:16:33;4.60;;;3.40;;
71187;SDS011;58893;53.130;8.158;2022-09-14T04:18:59;5.17;;;3.40;;
71187;SDS011;58893;53.130;8.158;2022-09-14T04:21:25;5.27;;;3.20;;
71187;SDS011;58893;53.130;8.158;2022-09-14T04:23:51;7.07;;;3.10;;
71187;SDS011;58893;53.130;8.158;2022-09-14T04:26:18;5.80;;;3.07;;
71187;SDS011;58893;53.130;8.158;2022-09-14T04:28:45;4.00;;;3.43;;
71187;SDS011;58893;53.130;8.158;2022-09-14T04:31:11;7.10;;;2.80;;
71187;SDS011;58893;53.130;8.158;2022-09-14T04:33:38;12.73;;;2.60;;
71187;SDS011;58893;53.130;8.158;2022-09-14T04:36:07;11.43;;;3.37;;
71187;SDS011;58893;53.130;8.158;2022-09-14T04:38:35;10.60;;;3.30;;
71187;SDS011;58893;53.130;8.158;2022-09-14T04:41:06;7.27;;;2.70;;
71187;SDS011;58893;53.130;8.158;2022-09-14T04:43:33;5.10;;;3.00;;
71187;SDS011;58893;53.130;8.158;2022-09-14T04:46:12;4.73;;;2.60;;
71187;SDS011;58893;53.130;8.158;2022-09-14T04:48:40;9.90;;;3.17;;
71187;SDS011;58893;53.130;8.158;2022-09-14T04:51:07;6.93;;;3.20;;
71187;SDS011;58893;53.130;8.158;2022-09-14T04:53:37;14.97;;;3.33;;
71187;SDS011;58893;53.130;8.158;2022-09-14T04:56:05;6.50;;;3.23;;
71187;SDS011;58893;53.130;8.158;2022-09-14T04:58:33;5.70;;;2.67;;
71187;SDS011;58893;53.130;8.158;2022-09-14T05:01:04;5.90;;;2.70;;
71187;SDS011;58893;53.130;8.158;2022-09-14T05:03:32;3.20;;;2.60;;
71187;SDS011;58893;53.130;8.158;2022-09-14T05:06:02;5.27;;;2.87;;
71187;SDS011;58893;53.130;8.158;2022-09-14T05:08:32;5.30;;;3.17;;
71187;SDS011;58893;53.130;8.158;2022-09-14T05:11:00;6.60;;;3.30;;
71187;SDS011;58893;53.130;8.158;2022-09-14T05:13:26;6.90;;;3.30;;
71187;SDS011;58893;53.130;8.158;2022-09-14T05:15:52;13.63;;;3.50;;
71187;SDS011;58893;53.130;8.158;2022-09-14T05:18:18;9.30;;;3.33;;
71187;SDS011;58893;53.130;8.158;2022-09-14T05:20:44;3.60;;;2.87;;
71187;SDS011;58893;53.130;8.158;2022-09-14T05:23:10;3.30;;;2.73;;
71187;SDS011;58893;53.130;8.158;2022-09-14T05:25:36;5.60;;;3.10;;
71187;SDS011;58893;53.130;8.158;2022-09-14T05:28:02;10.40;;;3.50;;
71187;SDS011;58893;53.130;8.158;2022-09-14T05:30:27;4.30;;;2.93;;
71187;SDS011;58893;53.130;8.158;2022-09-14T05:32:53;7.60;;;2.63;;
71187;SDS011;58893;53.130;8.158;2022-09-14T05:35:19;5.77;;;3.00;;
71187;SDS011;58893;53.130;8.158;2022-09-14T05:37:44;7.20;;;3.20;;
71187;SDS011;58893;53.130;8.158;2022-09-14T05:40:10;14.80;;;3.50;;
71187;SDS011;58893;53.130;8.158;2022-09-14T05:42:35;3.27;;;2.70;;
71187;SDS011;58893;53.130;8.158;2022-09-14T05:45:01;6.40;;;3.17;;
71187;SDS011;58893;53.130;8.158;2022-09-14T05:47:29;5.37;;;3.27;;
71187;SDS011;58893;53.130;8.158;2022-09-14T05:49:55;3.73;;;2.53;;
71187;SDS011;58893;53.130;8.158;2022-09-14T05:52:21;4.63;;;3.23;;
71187;SDS011;58893;53.130;8.158;2022-09-14T05:54:48;3.60;;;2.83;;
71187;SDS011;58893;53.130;8.158;2022-09-14T05:57:13;7.23;;;3.70;;
71187;SDS011;58893;53.130;8.158;2022-09-14T05:59:39;5.93;;;3.17;;
71187;SDS011;58893;53.130;8.158;2022-09-14T06:02:05;5.83;;;2.90;;
71187;SDS011;58893;53.130;8.158;2022-09-14T06:04:30;4.27;;;3.23;;
71187;SDS011;58893;53.130;8.158;2022-09-14T06:06:56;10.63;;;3.10;;
71187;SDS011;58893;53.130;8.158;2022-09-14T06:09:22;9.90;;;3.90;;
71187;SDS011;58893;53.130;8.158;2022-09-14T06:11:48;7.53;;;4.13;;
71187;SDS011;58893;53.130;8.158;2022-09-14T06:14:14;8.07;;;4.50;;
71187;SDS011;58893;53.130;8.158;2022-09-14T06:16:43;14.20;;;5.67;;
71187;SDS011;58893;53.130;8.158;2022-09-14T06:19:09;13.73;;;7.67;;
71187;SDS011;58893;53.130;8.158;2022-09-14T06:21:36;13.37;;;6.80;;
71187;SDS011;58893;53.130;8.158;2022-09-14T06:24:01;11.60;;;7.03;;
71187;SDS011;58893;53.130;8.158;2022-09-14T06:26:28;21.80;;;6.87;;
71187;SDS011;58893;53.130;8.158;2022-09-14T06:28:54;9.60;;;5.67;;
71187;SDS011;58893;53.130;8.158;2022-09-14T06:31:19;6.60;;;4.70;;
71187;SDS011;58893;53.130;8.158;2022-09-14T06:33:47;8.50;;;5.43;;
71187;SDS011;58893;53.130;8.158;2022-09-14T06:36:15;7.57;;;4.37;;
71187;SDS011;58893;53.130;8.158;2022-09-14T06:38:43;8.17;;;4.90;;
71187;SDS011;58893;53.130;8.158;2022-09-14T06:41:12;9.67;;;6.00;;
71187;SDS011;58893;53.130;8.158;2022-09-14T06:43:41;14.57;;;6.63;;
71187;SDS011;58893;53.130;8.158;2022-09-14T06:46:14;12.93;;;6.10;;
71187;SDS011;58893;53.130;8.158;2022-09-14T06:51:20;18.30;;;7.60;;
71187;SDS011;58893;53.130;8.158;2022-09-14T06:53:50;13.10;;;7.77;;
71187;SDS011;58893;53.130;8.158;2022-09-14T06:56:17;17.63;;;7.00;;
71187;SDS011;58893;53.130;8.158;2022-09-14T06:58:43;21.30;;;9.07;;
71187;SDS011;58893;53.130;8.158;2022-09-14T07:01:10;14.30;;;8.07;;
71187;SDS011;58893;53.130;8.158;2022-09-14T07:03:38;12.67;;;7.43;;
71187;SDS011;58893;53.130;8.158;2022-09-14T07:06:08;16.27;;;7.60;;
71187;SDS011;58893;53.130;8.158;2022-09-14T07:08:36;27.03;;;8.30;;
71187;SDS011;58893;53.130;8.158;2022-09-14T07:11:03;15.07;;;8.40;;
71187;SDS011;58893;53.130;8.158;2022-09-14T07:13:29;35.87;;;8.13;;
71187;SDS011;58893;53.130;8.158;2022-09-14T07:15:55;14.50;;;7.40;;
71187;SDS011;58893;53.130;8.158;2022-09-14T07:18:24;13.60;;;7.10;;
71187;SDS011;58893;53.130;8.158;2022-09-14T07:21:03;14.50;;;8.00;;
71187;SDS011;58893;53.130;8.158;2022-09-14T07:23:30;12.40;;;6.23;;
71187;SDS011;58893;53.130;8.158;2022-09-14T07:26:04;12.60;;;6.67;;
71187;SDS011;58893;53.130;8.158;2022-09-14T07:28:34;13.57;;;8.37;;
71187;SDS011;58893;53.130;8.158;2022-09-14T07:31:01;10.50;;;6.07;;
71187;SDS011;58893;53.130;8.158;2022-09-14T07:33:28;11.73;;;6.00;;
71187;SDS011;58893;53.130;8.158;2022-09-14T07:35:54;10.07;;;5.10;;
71187;SDS011;58893;53.130;8.158;2022-09-14T07:38:27;11.57;;;6.27;;
71187;SDS011;58893;53.130;8.158;2022-09-14T07:40:56;15.63;;;5.23;;
71187;SDS011;58893;53.130;8.158;2022-09-14T07:43:22;17.93;;;5.40;;
71187;SDS011;58893;53.130;8.158;2022-09-14T07:45:47;6.07;;;4.33;;
71187;SDS011;58893;53.130;8.158;2022-09-14T07:48:13;7.97;;;5.00;;
71187;SDS011;58893;53.130;8.158;2022-09-14T07:50:38;8.40;;;4.97;;
71187;SDS011;58893;53.130;8.158;2022-09-14T07:53:04;11.40;;;3.87;;
71187;SDS011;58893;53.130;8.158;2022-09-14T07:55:30;13.10;;;3.30;;
71187;SDS011;58893;53.130;8.158;2022-09-14T07:57:56;8.43;;;4.37;;
71187;SDS011;58893;53.130;8.158;2022-09-14T08:00:22;9.97;;;3.90;;
71187;SDS011;58893;53.130;8.158;2022-09-14T08:02:51;10.50;;;4.13;;
71187;SDS011;58893;53.130;8.158;2022-09-14T08:05:19;8.47;;;3.13;;
71187;SDS011;58893;53.130;8.158;2022-09-14T08:07:45;6.67;;;4.20;;
71187;SDS011;58893;53.130;8.158;2022-09-14T08:10:10;7.13;;;3.20;;
71187;SDS011;58893;53.130;8.158;2022-09-14T08:12:36;11.63;;;3.40;;
71187;SDS011;58893;53.130;8.158;2022-09-14T08:15:02;7.70;;;3.43;;
71187;SDS011;58893;53.130;8.158;2022-09-14T08:17:29;8.03;;;2.90;;
71187;SDS011;58893;53.130;8.158;2022-09-14T08:19:55;5.80;;;3.20;;
71187;SDS011;58893;53.130;8.158;2022-09-14T08:22:20;9.70;;;3.10;;
71187;SDS011;58893;53.130;8.158;2022-09-14T08:24:46;5.90;;;3.00;;
71187;SDS011;58893;53.130;8.158;2022-09-14T08:27:12;5.57;;;2.80;;
71187;SDS011;58893;53.130;8.158;2022-09-14T08:29:37;7.93;;;2.90;;
71187;SDS011;58893;53.130;8.158;2022-09-14T08:32:03;7.73;;;2.33;;
71187;SDS011;58893;53.130;8.158;2022-09-14T08:34:29;5.10;;;2.77;;
71187;SDS011;58893;53.130;8.158;2022-09-14T08:36:54;7.33;;;2.33;;
71187;SDS011;58893;53.130;8.158;2022-09-14T08:39:20;11.23;;;2.47;;
71187;SDS011;58893;53.130;8.158;2022-09-14T08:44:22;11.60;;;2.20;;
71187;SDS011;58893;53.130;8.158;2022-09-14T08:52:08;5.50;;;1.43;;
71187;SDS011;58893;53.130;8.158;2022-09-14T08:54:43;3.57;;;1.43;;
71187;SDS011;58893;53.130;8.158;2022-09-14T08:57:15;5.33;;;1.93;;
71187;SDS011;58893;53.130;8.158;2022-09-14T08:59:51;7.03;;;1.90;;
71187;SDS011;58893;53.130;8.158;2022-09-14T09:10:27;7.77;;;1.50;;
71187;SDS011;58893;53.130;8.158;2022-09-14T09:12:56;5.13;;;1.40;;
71187;SDS011;58893;53.130;8.158;2022-09-14T09:15:28;3.70;;;1.80;;
71187;SDS011;58893;53.130;8.158;2022-09-14T09:18:04;2.87;;;1.10;;
71187;SDS011;58893;53.130;8.158;2022-09-14T09:21:12;4.67;;;0.90;;
71187;SDS011;58893;53.130;8.158;2022-09-14T09:23:39;5.63;;;1.63;;
71187;SDS011;58893;53.130;8.158;2022-09-14T09:26:11;2.97;;;1.37;;
71187;SDS011;58893;53.130;8.158;2022-09-14T09:28:50;10.10;;;1.70;;
71187;SDS011;58893;53.130;8.158;2022-09-14T09:31:21;2.97;;;1.27;;
71187;SDS011;58893;53.130;8.158;2022-09-14T09:34:00;9.10;;;1.60;;
71187;SDS011;58893;53.130;8.158;2022-09-14T09:36:28;2.37;;;1.17;;
71187;SDS011;58893;53.130;8.158;2022-09-14T09:39:01;5.93;;;1.43;;
71187;SDS011;58893;53.130;8.158;2022-09-14T09:41:28;8.20;;;1.33;;
71187;SDS011;58893;53.130;8.158;2022-09-14T09:44:01;4.07;;;1.50;;
71187;SDS011;58893;53.130;8.158;2022-09-14T09:46:30;5.10;;;1.33;;
71187;SDS011;58893;53.130;8.158;2022-09-14T09:48:58;10.80;;;2.03;;
71187;SDS011;58893;53.130;8.158;2022-09-14T09:51:30;4.40;;;1.47;;
71187;SDS011;58893;53.130;8.158;2022-09-14T09:57:04;6.33;;;1.50;;
71187;SDS011;58893;53.130;8.158;2022-09-14T09:59:35;9.30;;;1.43;;
71187;SDS011;58893;53.130;8.158;2022-09-14T10:04:54;4.03;;;1.50;;
71187;SDS011;58893;53.130;8.158;2022-09-14T10:07:22;5.53;;;1.50;;
71187;SDS011;58893;53.130;8.158;2022-09-14T10:09:55;6.37;;;1.07;;
71187;SDS011;58893;53.130;8.158;2022-09-14T10:12:32;5.40;;;1.17;;
71187;SDS011;58893;53.130;8.158;2022-09-14T10:15:02;8.73;;;1.70;;
71187;SDS011;58893;53.130;8.158;2022-09-14T10:17:34;4.83;;;1.10;;
71187;SDS011;58893;53.130;8.158;2022-09-14T10:20:01;13.43;;;1.30;;
71187;SDS011;58893;53.130;8.158;2022-09-14T10:22:29;10.43;;;1.50;;
71187;SDS011;58893;53.130;8.158;2022-09-14T10:25:00;6.80;;;1.10;;
71187;SDS011;58893;53.130;8.158;2022-09-14T10:30:31;4.00;;;1.13;;
71187;SDS011;58893;53.130;8.158;2022-09-14T10:33:04;7.90;;;1.13;;
71187;SDS011;58893;53.130;8.158;2022-09-14T10:35:39;6.23;;;1.10;;
71187;SDS011;58893;53.130;8.158;2022-09-14T10:40:47;6.03;;;1.40;;
71187;SDS011;58893;53.130;8.158;2022-09-14T10:43:37;7.93;;;1.10;;
71187;SDS011;58893;53.130;8.158;2022-09-14T10:46:19;10.90;;;1.00;;
71187;SDS011;58893;53.130;8.158;2022-09-14T11:05:38;4.50;;;1.00;;
71187;SDS011;58893;53.130;8.158;2022-09-14T11:20:17;2.80;;;1.10;;
71187;SDS011;58893;53.130;8.158;2022-09-14T11:25:13;3.60;;;1.43;;
71187;SDS011;58893;53.130;8.158;2022-09-14T11:27:51;6.50;;;1.20;;
71187;SDS011;58893;53.130;8.158;2022-09-14T11:30:23;6.63;;;1.20;;
71187;SDS011;58893;53.130;8.158;2022-09-14T11:33:12;5.40;;;1.23;;
71187;SDS011;58893;53.130;8.158;2022-09-14T11:35:54;19.30;;;1.77;;
71187;SDS011;58893;53.130;8.158;2022-09-14T11:38:27;4.50;;;1.20;;
71187;SDS011;58893;53.130;8.158;2022-09-14T11:43:52;4.50;;;1.53;;
71187;SDS011;58893;53.130;8.158;2022-09-14T11:46:38;7.27;;;1.33;;
71187;SDS011;58893;53.130;8.158;2022-09-14T11:51:45;4.80;;;1.40;;
71187;SDS011;58893;53.130;8.158;2022-09-14T11:54:16;2.77;;;1.13;;
71187;SDS011;58893;53.130;8.158;2022-09-14T11:56:51;5.20;;;1.30;;
71187;SDS011;58893;53.130;8.158;2022-09-14T11:59:32;8.50;;;1.63;;
71187;SDS011;58893;53.130;8.158;2022-09-14T12:15:19;4.93;;;1.27;;
71187;SDS011;58893;53.130;8.158;2022-09-14T12:17:49;5.17;;;2.10;;
71187;SDS011;58893;53.130;8.158;2022-09-14T12:23:18;5.70;;;1.37;;
71187;SDS011;58893;53.130;8.158;2022-09-14T12:40:53;5.70;;;1.77;;
71187;SDS011;58893;53.130;8.158;2022-09-14T12:51:53;7.10;;;1.30;;
71187;SDS011;58893;53.130;8.158;2022-09-14T13:01:56;6.23;;;1.50;;
71187;SDS011;58893;53.130;8.158;2022-09-14T13:04:36;4.30;;;1.30;;
71187;SDS011;58893;53.130;8.158;2022-09-14T13:07:05;4.03;;;1.60;;
71187;SDS011;58893;53.130;8.158;2022-09-14T13:09:37;11.53;;;1.20;;
71187;SDS011;58893;53.130;8.158;2022-09-14T13:12:13;4.20;;;1.10;;
71187;SDS011;58893;53.130;8.158;2022-09-14T13:17:13;9.37;;;1.40;;
71187;SDS011;58893;53.130;8.158;2022-09-14T13:19:40;6.03;;;1.47;;
71187;SDS011;58893;53.130;8.158;2022-09-14T13:22:28;2.93;;;1.17;;
71187;SDS011;58893;53.130;8.158;2022-09-14T13:24:55;7.80;;;2.10;;
71187;SDS011;58893;53.130;8.158;2022-09-14T13:27:26;4.80;;;1.40;;
71187;SDS011;58893;53.130;8.158;2022-09-14T13:32:26;6.63;;;2.10;;
71187;SDS011;58893;53.130;8.158;2022-09-14T13:34:52;8.90;;;2.47;;
71187;SDS011;58893;53.130;8.158;2022-09-14T13:37:19;2.00;;;1.50;;
71187;SDS011;58893;53.130;8.158;2022-09-14T13:39:50;20.57;;;2.13;;
71187;SDS011;58893;53.130;8.158;2022-09-14T13:42:17;1.80;;;1.17;;
71187;SDS011;58893;53.130;8.158;2022-09-14T13:44:44;2.50;;;1.23;;
71187;SDS011;58893;53.130;8.158;2022-09-14T13:47:12;1.73;;;1.00;;
71187;SDS011;58893;53.130;8.158;2022-09-14T13:49:39;3.83;;;1.13;;
71187;SDS011;58893;53.130;8.158;2022-09-14T13:52:25;13.43;;;1.60;;
71187;SDS011;58893;53.130;8.158;2022-09-14T13:58:05;4.40;;;1.30;;
71187;SDS011;58893;53.130;8.158;2022-09-14T14:06:04;10.83;;;1.90;;
71187;SDS011;58893;53.130;8.158;2022-09-14T14:08:57;10.23;;;1.83;;
71187;SDS011;58893;53.130;8.158;2022-09-14T14:11:30;4.03;;;1.20;;
71187;SDS011;58893;53.130;8.158;2022-09-14T14:14:12;9.47;;;2.03;;
71187;SDS011;58893;53.130;8.158;2022-09-14T14:19:34;3.43;;;1.27;;
71187;SDS011;58893;53.130;8.158;2022-09-14T14:24:38;6.23;;;1.50;;
71187;SDS011;58893;53.130;8.158;2022-09-14T14:29:59;17.80;;;2.60;;
71187;SDS011;58893;53.130;8.158;2022-09-14T14:32:27;7.63;;;1.83;;
71187;SDS011;58893;53.130;8.158;2022-09-14T14:34:53;7.80;;;1.40;;
71187;SDS011;58893;53.130;8.158;2022-09-14T14:37:20;10.17;;;1.57;;
71187;SDS011;58893;53.130;8.158;2022-09-14T14:39:46;3.73;;;1.27;;
71187;SDS011;58893;53.130;8.158;2022-09-14T14:42:13;5.50;;;1.30;;
71187;SDS011;58893;53.130;8.158;2022-09-14T14:44:40;9.33;;;1.47;;
71187;SDS011;58893;53.130;8.158;2022-09-14T14:47:06;9.60;;;1.90;;
71187;SDS011;58893;53.130;8.158;2022-09-14T14:49:34;4.50;;;1.53;;
71187;SDS011;58893;53.130;8.158;2022-09-14T14:51:59;8.43;;;2.00;;
71187;SDS011;58893;53.130;8.158;2022-09-14T14:54:25;2.30;;;1.23;;
71187;SDS011;58893;53.130;8.158;2022-09-14T14:56:53;3.97;;;1.43;;
71187;SDS011;58893;53.130;8.158;2022-09-14T15:01:45;6.23;;;1.47;;
71187;SDS011;58893;53.130;8.158;2022-09-14T15:04:12;18.90;;;2.70;;
71187;SDS011;58893;53.130;8.158;2022-09-14T15:06:38;6.67;;;1.60;;
71187;SDS011;58893;53.130;8.158;2022-09-14T15:09:21;4.33;;;1.27;;
71187;SDS011;58893;53.130;8.158;2022-09-14T15:11:49;8.90;;;2.23;;
71187;SDS011;58893;53.130;8.158;2022-09-14T15:14:18;7.27;;;1.50;;
71187;SDS011;58893;53.130;8.158;2022-09-14T15:16:45;6.13;;;1.30;;
71187;SDS011;58893;53.130;8.158;2022-09-14T15:19:12;4.80;;;1.20;;
71187;SDS011;58893;53.130;8.158;2022-09-14T15:21:38;5.10;;;1.40;;
71187;SDS011;58893;53.130;8.158;2022-09-14T15:24:05;8.17;;;1.70;;
71187;SDS011;58893;53.130;8.158;2022-09-14T15:26:31;9.70;;;1.40;;
71187;SDS011;58893;53.130;8.158;2022-09-14T15:28:57;3.37;;;1.27;;
71187;SDS011;58893;53.130;8.158;2022-09-14T15:31:23;2.63;;;1.43;;
71187;SDS011;58893;53.130;8.158;2022-09-14T15:33:49;7.10;;;3.43;;
71187;SDS011;58893;53.130;8.158;2022-09-14T15:36:37;6.63;;;1.53;;
71187;SDS011;58893;53.130;8.158;2022-09-14T15:39:09;5.33;;;1.30;;
71187;SDS011;58893;53.130;8.158;2022-09-14T15:41:36;11.23;;;2.17;;
71187;SDS011;58893;53.130;8.158;2022-09-14T15:44:02;13.80;;;1.50;;
71187;SDS011;58893;53.130;8.158;2022-09-14T15:46:28;8.00;;;2.97;;
71187;SDS011;58893;53.130;8.158;2022-09-14T15:48:55;4.47;;;1.63;;
71187;SDS011;58893;53.130;8.158;2022-09-14T15:51:20;9.97;;;2.00;;
71187;SDS011;58893;53.130;8.158;2022-09-14T15:53:46;9.63;;;1.70;;
71187;SDS011;58893;53.130;8.158;2022-09-14T15:56:12;5.90;;;1.57;;
71187;SDS011;58893;53.130;8.158;2022-09-14T15:58:40;7.43;;;1.40;;
71187;SDS011;58893;53.130;8.158;2022-09-14T16:01:07;3.80;;;1.30;;
71187;SDS011;58893;53.130;8.158;2022-09-14T16:03:36;3.47;;;1.20;;
71187;SDS011;58893;53.130;8.158;2022-09-14T16:06:04;8.53;;;1.37;;
71187;SDS011;58893;53.130;8.158;2022-09-14T16:08:30;4.10;;;1.47;;
71187;SDS011;58893;53.130;8.158;2022-09-14T16:10:57;4.13;;;1.40;;
71187;SDS011;58893;53.130;8.158;2022-09-14T16:13:23;4.87;;;1.67;;
71187;SDS011;58893;53.130;8.158;2022-09-14T16:15:49;18.70;;;2.13;;
71187;SDS011;58893;53.130;8.158;2022-09-14T16:18:14;3.63;;;1.20;;
71187;SDS011;58893;53.130;8.158;2022-09-14T16:20:40;3.10;;;1.40;;
71187;SDS011;58893;53.130;8.158;2022-09-14T16:23:05;7.23;;;1.10;;
71187;SDS011;58893;53.130;8.158;2022-09-14T16:25:35;2.50;;;1.20;;
71187;SDS011;58893;53.130;8.158;2022-09-14T16:28:04;10.40;;;1.30;;
71187;SDS011;58893;53.130;8.158;2022-09-14T16:30:31;3.47;;;1.00;;
71187;SDS011;58893;53.130;8.158;2022-09-14T16:32:57;1.67;;;0.90;;
71187;SDS011;58893;53.130;8.158;2022-09-14T16:35:23;3.87;;;1.53;;
71187;SDS011;58893;53.130;8.158;2022-09-14T16:37:49;5.00;;;1.00;;
71187;SDS011;58893;53.130;8.158;2022-09-14T16:40:15;13.20;;;1.37;;
71187;SDS011;58893;53.130;8.158;2022-09-14T16:42:41;3.33;;;1.63;;
71187;SDS011;58893;53.130;8.158;2022-09-14T16:45:07;4.60;;;2.47;;
71187;SDS011;58893;53.130;8.158;2022-09-14T16:47:33;5.87;;;3.00;;
71187;SDS011;58893;53.130;8.158;2022-09-14T16:49:58;9.50;;;1.90;;
71187;SDS011;58893;53.130;8.158;2022-09-14T16:52:24;10.10;;;1.60;;
71187;SDS011;58893;53.130;8.158;2022-09-14T16:54:50;6.60;;;1.07;;
71187;SDS011;58893;53.130;8.158;2022-09-14T16:57:15;3.07;;;1.20;;
71187;SDS011;58893;53.130;8.158;2022-09-14T16:59:41;5.17;;;1.40;;
71187;SDS011;58893;53.130;8.158;2022-09-14T17:02:08;5.47;;;1.17;;
71187;SDS011;58893;53.130;8.158;2022-09-14T17:04:35;2.87;;;1.13;;
71187;SDS011;58893;53.130;8.158;2022-09-14T17:07:00;3.47;;;1.30;;
71187;SDS011;58893;53.130;8.158;2022-09-14T17:09:27;2.70;;;0.90;;
71187;SDS011;58893;53.130;8.158;2022-09-14T17:11:54;5.37;;;0.90;;
71187;SDS011;58893;53.130;8.158;2022-09-14T17:14:23;2.43;;;1.30;;
71187;SDS011;58893;53.130;8.158;2022-09-14T17:16:54;2.40;;;1.10;;
71187;SDS011;58893;53.130;8.158;2022-09-14T17:19:19;5.30;;;1.47;;
71187;SDS011;58893;53.130;8.158;2022-09-14T17:21:45;1.80;;;0.90;;
71187;SDS011;58893;53.130;8.158;2022-09-14T17:24:12;1.20;;;0.90;;
71187;SDS011;58893;53.130;8.158;2022-09-14T17:26:40;1.00;;;0.90;;
71187;SDS011;58893;53.130;8.158;2022-09-14T17:29:06;1.93;;;0.90;;
71187;SDS011;58893;53.130;8.158;2022-09-14T17:31:36;1.67;;;1.07;;
71187;SDS011;58893;53.130;8.158;2022-09-14T17:34:04;1.13;;;0.90;;
71187;SDS011;58893;53.130;8.158;2022-09-14T17:36:32;3.33;;;1.00;;
71187;SDS011;58893;53.130;8.158;2022-09-14T17:38:59;3.90;;;1.60;;
71187;SDS011;58893;53.130;8.158;2022-09-14T17:41:28;1.93;;;1.20;;
71187;SDS011;58893;53.130;8.158;2022-09-14T17:43:58;1.77;;;0.87;;
71187;SDS011;58893;53.130;8.158;2022-09-14T17:46:26;3.77;;;1.17;;
71187;SDS011;58893;53.130;8.158;2022-09-14T17:48:52;1.03;;;0.83;;
71187;SDS011;58893;53.130;8.158;2022-09-14T17:51:22;3.00;;;1.43;;
71187;SDS011;58893;53.130;8.158;2022-09-14T17:53:51;11.97;;;2.50;;
71187;SDS011;58893;53.130;8.158;2022-09-14T17:56:19;6.13;;;2.50;;